createdAt,value
2017-10-07T00:00:49.575Z,12.13
2017-10-07T00:03:15.922Z,14.47
2017-10-07T00:05:43.035Z,14.10
2017-10-07T00:08:12.332Z,11.27
2017-10-07T00:10:44.686Z,15.83
2017-10-07T00:13:11.003Z,15.43
2017-10-07T00:15:38.068Z,17.67
2017-10-07T00:18:04.391Z,16.47
2017-10-07T00:20:30.687Z,10.20
2017-10-07T00:22:57.092Z,14.70
2017-10-07T00:25:23.387Z,11.57
2017-10-07T00:27:50.422Z,19.07
2017-10-07T00:30:17.503Z,20.50
2017-10-07T00:32:43.807Z,19.00
2017-10-07T00:35:10.147Z,14.50
2017-10-07T00:37:37.940Z,14.83
2017-10-07T00:40:05.039Z,12.80
2017-10-07T00:42:31.431Z,34.60
2017-10-07T00:44:59.251Z,16.70
2017-10-07T00:47:25.589Z,17.37
2017-10-07T00:49:52.659Z,15.57
2017-10-07T00:52:18.968Z,10.63
2017-10-07T00:54:46.064Z,13.90
2017-10-07T00:57:12.440Z,21.80
2017-10-07T00:59:40.285Z,22.80
2017-10-07T01:02:06.623Z,19.77
2017-10-07T01:04:33.512Z,19.33
2017-10-07T01:07:01.327Z,15.70
2017-10-07T01:09:27.719Z,15.27
2017-10-07T01:11:54.076Z,10.60
2017-10-07T01:14:20.384Z,19.33
2017-10-07T01:16:47.019Z,14.57
2017-10-07T01:19:13.356Z,13.37
2017-10-07T01:21:39.734Z,11.13
2017-10-07T01:24:06.063Z,19.20
2017-10-07T01:26:32.516Z,17.60
2017-10-07T01:28:58.857Z,24.80
2017-10-07T01:31:25.255Z,26.07
2017-10-07T01:33:52.340Z,18.63
2017-10-07T01:36:18.683Z,25.33
2017-10-07T01:38:45.255Z,26.87
2017-10-07T01:41:12.363Z,21.60
2017-10-07T01:43:39.476Z,10.03
2017-10-07T01:46:05.847Z,18.00
2017-10-07T01:48:33.703Z,15.43
2017-10-07T01:51:00.033Z,15.67
2017-10-07T01:53:26.375Z,16.47
2017-10-07T01:55:52.711Z,19.53
2017-10-07T01:58:19.076Z,10.90
2017-10-07T02:00:45.419Z,14.07
2017-10-07T02:03:11.721Z,7.40
2017-10-07T02:05:38.821Z,12.77
2017-10-07T02:08:05.135Z,11.47
2017-10-07T02:10:31.481Z,12.80
2017-10-07T02:12:57.827Z,19.13
2017-10-07T02:15:24.489Z,16.30
2017-10-07T02:17:50.812Z,10.77
2017-10-07T02:20:17.178Z,26.17
2017-10-07T02:22:43.516Z,9.10
2017-10-07T02:25:09.875Z,15.03
2017-10-07T02:27:36.240Z,9.93
2017-10-07T02:30:03.312Z,10.77
2017-10-07T02:32:29.719Z,15.00
2017-10-07T02:34:56.036Z,18.00
2017-10-07T02:37:22.376Z,15.47
2017-10-07T02:39:48.699Z,10.97
2017-10-07T02:42:15.092Z,12.20
2017-10-07T02:44:41.435Z,10.03
2017-10-07T02:47:07.792Z,15.93
2017-10-07T02:49:35.602Z,10.67
2017-10-07T02:52:02.664Z,15.87
2017-10-07T02:54:29.019Z,16.27
2017-10-07T02:56:55.344Z,11.77
2017-10-07T02:59:21.687Z,14.27
2017-10-07T03:01:48.012Z,9.70
2017-10-07T03:04:14.339Z,12.70
2017-10-07T03:06:41.435Z,8.77
2017-10-07T03:09:08.512Z,10.70
2017-10-07T03:11:34.832Z,13.17
2017-10-07T03:14:01.960Z,13.50
2017-10-07T03:16:28.315Z,13.27
2017-10-07T03:18:54.635Z,6.70
2017-10-07T03:21:20.963Z,19.40
2017-10-07T03:23:47.274Z,11.77
2017-10-07T03:26:13.625Z,15.13
2017-10-07T03:28:39.937Z,21.77
2017-10-07T03:31:06.271Z,11.03
2017-10-07T03:33:32.631Z,11.43
2017-10-07T03:35:59.707Z,11.43
2017-10-07T03:38:26.051Z,17.43
2017-10-07T03:40:52.458Z,17.53
2017-10-07T03:43:18.799Z,4.87
2017-10-07T03:45:45.141Z,8.33
2017-10-07T03:48:11.506Z,12.53
2017-10-07T03:50:38.555Z,8.83
2017-10-07T03:53:05.649Z,17.33
2017-10-07T03:55:31.979Z,11.67
2017-10-07T03:57:59.047Z,9.13
2017-10-07T04:00:25.379Z,8.47
2017-10-07T04:02:51.759Z,10.57
2017-10-07T04:05:18.200Z,4.00
2017-10-07T04:07:44.515Z,8.13
2017-10-07T04:10:11.591Z,4.93
2017-10-07T04:12:37.936Z,8.23
2017-10-07T04:15:04.270Z,4.70
2017-10-07T04:17:30.655Z,8.77
2017-10-07T04:19:58.476Z,7.73
2017-10-07T04:22:25.522Z,7.23
2017-10-07T04:24:52.603Z,8.20
2017-10-07T04:27:18.919Z,6.23
2017-10-07T04:29:46.004Z,8.77
2017-10-07T04:32:12.369Z,8.03
2017-10-07T04:34:38.747Z,7.00
2017-10-07T04:37:05.076Z,8.73
2017-10-07T04:39:31.419Z,4.60
2017-10-07T04:41:58.516Z,10.10
2017-10-07T04:44:25.599Z,7.10
2017-10-07T04:46:51.961Z,12.33
2017-10-07T04:49:19.243Z,5.23
2017-10-07T04:51:47.096Z,3.40
2017-10-07T04:54:13.501Z,5.70
2017-10-07T04:56:39.851Z,3.20
2017-10-07T04:59:06.899Z,4.50
2017-10-07T05:01:33.991Z,7.53
2017-10-07T05:04:00.355Z,9.53
2017-10-07T05:06:26.735Z,14.63
2017-10-07T05:08:53.124Z,5.47
2017-10-07T05:11:19.791Z,8.90
2017-10-07T05:13:46.185Z,5.90
2017-10-07T05:16:14.035Z,3.60
2017-10-07T05:18:40.439Z,7.90
2017-10-07T05:21:06.889Z,11.97
2017-10-07T05:23:34.283Z,7.50
2017-10-07T05:26:00.710Z,10.33
2017-10-07T05:28:28.085Z,6.80
2017-10-07T05:30:56.014Z,10.67
2017-10-07T05:33:23.151Z,7.70
2017-10-07T05:35:49.583Z,3.80
2017-10-07T05:38:16.012Z,9.30
2017-10-07T05:40:42.437Z,9.90
2017-10-07T05:43:08.848Z,5.63
2017-10-07T05:45:35.268Z,14.30
2017-10-07T05:48:01.692Z,11.47
2017-10-07T05:50:28.845Z,9.70
2017-10-07T05:52:55.538Z,6.53
2017-10-07T05:55:21.964Z,5.67
2017-10-07T05:57:48.433Z,6.20
2017-10-07T06:00:14.812Z,6.27
2017-10-07T06:02:48.128Z,7.43
2017-10-07T06:05:14.573Z,3.87
2017-10-07T06:07:41.022Z,11.93
2017-10-07T06:10:07.520Z,5.13
2017-10-07T06:12:33.905Z,5.03
2017-10-07T06:15:00.332Z,7.13
2017-10-07T06:17:26.715Z,9.07
2017-10-07T06:19:53.147Z,6.73
2017-10-07T06:22:21.191Z,11.33
2017-10-07T06:24:48.326Z,8.63
2017-10-07T06:27:15.459Z,12.53
2017-10-07T06:29:41.824Z,9.10
2017-10-07T06:32:09.922Z,11.33
2017-10-07T06:34:36.271Z,4.93
2017-10-07T06:37:02.671Z,5.73
2017-10-07T06:39:29.735Z,5.67
2017-10-07T06:41:56.107Z,11.23
2017-10-07T06:44:22.705Z,6.00
2017-10-07T06:46:49.067Z,4.87
2017-10-07T06:49:15.520Z,7.83
2017-10-07T06:51:42.672Z,6.83
2017-10-07T06:54:09.048Z,16.40
2017-10-07T06:56:35.439Z,7.40
2017-10-07T06:59:02.619Z,6.30
2017-10-07T07:01:29.756Z,5.40
2017-10-07T07:03:56.150Z,5.20
2017-10-07T07:06:22.583Z,12.67
2017-10-07T07:08:48.951Z,10.93
2017-10-07T07:11:16.199Z,7.03
2017-10-07T07:13:42.591Z,11.53
2017-10-07T07:16:09.682Z,8.27
2017-10-07T07:18:36.112Z,8.50
2017-10-07T07:21:02.531Z,14.33
2017-10-07T07:23:28.947Z,8.60
2017-10-07T07:25:55.340Z,5.73
2017-10-07T07:28:22.407Z,9.23
2017-10-07T07:30:49.547Z,10.97
2017-10-07T07:33:15.931Z,8.33
2017-10-07T07:35:43.077Z,8.23
2017-10-07T07:38:09.425Z,5.67
2017-10-07T07:40:35.951Z,9.33
2017-10-07T07:43:02.392Z,5.73
2017-10-07T07:45:28.755Z,4.60
2017-10-07T07:47:55.409Z,6.53
2017-10-07T07:50:21.860Z,4.13
2017-10-07T07:52:48.260Z,8.07
2017-10-07T07:55:14.680Z,5.30
2017-10-07T07:57:41.242Z,4.40
2017-10-07T08:00:07.740Z,7.50
2017-10-07T08:02:34.867Z,4.10
2017-10-07T08:05:01.387Z,4.73
2017-10-07T08:07:27.732Z,9.40
2017-10-07T08:09:54.091Z,3.80
2017-10-07T08:12:21.615Z,3.90
2017-10-07T08:14:48.046Z,3.07
2017-10-07T08:17:14.437Z,9.23
2017-10-07T08:19:40.851Z,8.37
2017-10-07T08:22:14.961Z,3.53
2017-10-07T08:24:41.383Z,7.63
2017-10-07T08:27:07.909Z,12.63
2017-10-07T08:29:35.033Z,10.10
2017-10-07T08:32:01.376Z,9.53
2017-10-07T08:34:27.788Z,2.40
2017-10-07T08:36:54.447Z,11.20
2017-10-07T08:39:20.867Z,6.30
2017-10-07T08:41:47.973Z,4.60
2017-10-07T08:44:14.334Z,6.47
2017-10-07T08:46:40.756Z,4.83
2017-10-07T08:49:07.165Z,3.53
2017-10-07T08:51:33.568Z,2.93
2017-10-07T08:54:00.674Z,5.97
2017-10-07T08:56:27.053Z,8.23
2017-10-07T08:58:53.411Z,4.33
2017-10-07T09:01:20.552Z,7.20
2017-10-07T09:03:46.903Z,16.03
2017-10-07T09:06:14.035Z,8.83
2017-10-07T09:08:41.119Z,3.03
2017-10-07T09:11:07.489Z,6.93
2017-10-07T09:13:33.856Z,12.70
2017-10-07T09:16:00.236Z,4.73
2017-10-07T09:18:26.900Z,4.63
2017-10-07T09:20:53.291Z,6.43
2017-10-07T09:23:19.663Z,2.57
2017-10-07T09:25:46.034Z,7.50
2017-10-07T09:28:12.425Z,8.70
2017-10-07T09:30:38.795Z,9.70
2017-10-07T09:33:05.218Z,4.87
2017-10-07T09:35:31.577Z,10.30
2017-10-07T09:37:58.035Z,5.40
2017-10-07T09:40:24.440Z,4.07
2017-10-07T09:42:50.940Z,5.07
2017-10-07T09:45:17.288Z,10.80
2017-10-07T09:47:43.735Z,4.80
2017-10-07T09:50:10.148Z,6.07
2017-10-07T09:52:36.499Z,4.93
2017-10-07T09:55:03.680Z,6.37
2017-10-07T09:57:30.836Z,5.07
2017-10-07T09:59:57.234Z,6.70
2017-10-07T10:02:23.631Z,6.33
2017-10-07T10:04:50.048Z,7.80
2017-10-07T10:07:16.375Z,2.97
2017-10-07T10:09:44.209Z,13.20
2017-10-07T10:12:10.618Z,6.30
2017-10-07T10:14:37.018Z,6.93
2017-10-07T10:17:03.360Z,5.67
2017-10-07T10:19:30.508Z,9.63
2017-10-07T10:21:57.636Z,4.87
2017-10-07T10:24:24.022Z,6.50
2017-10-07T10:26:50.384Z,15.20
2017-10-07T10:29:16.753Z,9.70
2017-10-07T10:31:45.009Z,10.00
2017-10-07T10:34:11.376Z,3.90
2017-10-07T10:36:37.752Z,14.17
2017-10-07T10:39:04.142Z,10.53
2017-10-07T10:41:31.316Z,3.20
2017-10-07T10:43:58.485Z,11.13
2017-10-07T10:46:28.549Z,3.27
2017-10-07T10:48:55.047Z,12.00
2017-10-07T10:51:21.457Z,6.27
2017-10-07T10:53:47.818Z,7.60
2017-10-07T10:56:14.235Z,5.10
2017-10-07T10:58:41.385Z,5.43
2017-10-07T11:01:07.753Z,10.33
2017-10-07T11:03:34.126Z,9.97
2017-10-07T11:06:00.498Z,7.03
2017-10-07T11:08:26.946Z,11.60
2017-10-07T11:10:53.421Z,10.63
2017-10-07T11:13:19.792Z,7.37
2017-10-07T11:15:46.148Z,7.23
2017-10-07T11:18:12.538Z,5.83
2017-10-07T11:20:39.230Z,7.17
2017-10-07T11:23:05.777Z,8.60
2017-10-07T11:25:32.196Z,7.07
2017-10-07T11:27:58.780Z,6.33
2017-10-07T11:30:25.181Z,2.70
2017-10-07T11:32:52.335Z,6.17
2017-10-07T11:35:18.747Z,5.83
2017-10-07T11:37:45.088Z,13.00
2017-10-07T11:40:11.447Z,4.33
2017-10-07T11:42:37.844Z,5.67
2017-10-07T11:45:05.085Z,6.57
2017-10-07T11:47:31.402Z,8.80
2017-10-07T11:49:57.784Z,5.50
2017-10-07T11:52:25.757Z,13.10
2017-10-07T11:57:23.789Z,4.77
2017-10-07T11:59:50.197Z,13.17
2017-10-07T12:02:16.623Z,12.03
2017-10-07T12:04:42.997Z,3.23
2017-10-07T12:07:09.393Z,7.07
2017-10-07T12:09:36.514Z,6.93
2017-10-07T12:12:03.611Z,16.33
2017-10-07T12:14:37.500Z,7.80
2017-10-07T12:17:04.558Z,7.33
2017-10-07T12:19:30.988Z,7.43
2017-10-07T12:21:58.096Z,6.33
2017-10-07T12:24:24.423Z,6.47
2017-10-07T12:26:50.815Z,6.67
2017-10-07T12:29:17.171Z,7.57
2017-10-07T12:31:43.539Z,5.50
2017-10-07T12:34:09.904Z,15.33
2017-10-07T12:36:36.266Z,4.53
2017-10-07T12:39:03.436Z,12.03
2017-10-07T12:41:30.721Z,3.10
2017-10-07T12:43:57.831Z,6.23
2017-10-07T12:46:25.701Z,5.57
2017-10-07T12:48:52.089Z,19.03
2017-10-07T12:51:18.501Z,2.30
2017-10-07T12:53:44.888Z,9.60
2017-10-07T12:56:11.294Z,5.73
2017-10-07T12:58:37.683Z,2.43
2017-10-07T13:01:04.036Z,3.40
2017-10-07T13:03:31.420Z,7.10
2017-10-07T13:05:58.525Z,2.70
2017-10-07T13:08:24.843Z,8.13
2017-10-07T13:10:51.203Z,9.77
2017-10-07T13:13:17.525Z,4.40
2017-10-07T13:15:43.944Z,5.00
2017-10-07T13:18:10.312Z,10.80
2017-10-07T13:20:38.368Z,3.90
2017-10-07T13:23:04.940Z,7.37
2017-10-07T13:25:31.317Z,7.53
2017-10-07T13:27:57.680Z,11.47
2017-10-07T13:30:24.059Z,7.63
2017-10-07T13:32:50.400Z,3.20
2017-10-07T13:35:16.778Z,4.93
2017-10-07T13:37:43.134Z,9.57
2017-10-07T13:40:09.536Z,6.53
2017-10-07T13:42:35.922Z,8.53
2017-10-07T13:45:02.360Z,9.30
2017-10-07T13:47:28.784Z,8.63
2017-10-07T13:49:55.232Z,8.30
2017-10-07T13:52:21.680Z,6.57
2017-10-07T13:54:48.811Z,8.27
2017-10-07T13:57:15.199Z,4.13
2017-10-07T13:59:42.419Z,10.87
2017-10-07T14:02:08.796Z,8.03
2017-10-07T14:04:35.200Z,7.43
2017-10-07T14:07:02.487Z,6.10
2017-10-07T14:09:28.852Z,6.70
2017-10-07T14:11:55.204Z,12.40
2017-10-07T14:14:21.579Z,6.07
2017-10-07T14:16:47.926Z,7.47
2017-10-07T14:19:15.042Z,9.37
2017-10-07T14:21:42.456Z,14.80
2017-10-07T14:24:08.836Z,7.10
2017-10-07T14:26:35.982Z,15.53
2017-10-07T14:29:02.407Z,17.57
2017-10-07T14:31:28.774Z,4.33
2017-10-07T14:33:55.172Z,8.80
2017-10-07T14:36:21.600Z,7.07
2017-10-07T14:38:49.063Z,9.17
2017-10-07T14:41:16.225Z,5.43
2017-10-07T14:43:43.436Z,5.90
2017-10-07T14:46:09.963Z,5.97
2017-10-07T14:48:36.323Z,5.47
2017-10-07T14:51:02.679Z,11.83
2017-10-07T14:53:29.751Z,5.67
2017-10-07T14:55:56.140Z,10.30
2017-10-07T14:58:22.531Z,5.70
2017-10-07T15:00:49.734Z,8.23
2017-10-07T15:03:16.320Z,11.07
2017-10-07T15:05:42.729Z,15.03
2017-10-07T15:08:09.104Z,6.70
2017-10-07T15:10:35.528Z,5.73
2017-10-07T15:13:01.900Z,8.93
2017-10-07T15:15:28.255Z,6.43
2017-10-07T15:17:54.623Z,18.60
2017-10-07T15:20:21.002Z,11.33
2017-10-07T15:22:48.096Z,4.77
2017-10-07T15:25:14.447Z,6.93
2017-10-07T15:27:40.828Z,10.57
2017-10-07T15:30:07.195Z,9.43
2017-10-07T15:32:33.599Z,12.40
2017-10-07T15:34:59.959Z,7.97
2017-10-07T15:37:26.327Z,9.73
2017-10-07T15:39:52.740Z,6.87
2017-10-07T15:42:19.157Z,11.20
2017-10-07T15:44:45.519Z,9.03
2017-10-07T15:47:12.672Z,9.97
2017-10-07T15:49:39.811Z,11.90
2017-10-07T15:52:06.191Z,6.83
2017-10-07T15:54:33.305Z,7.00
2017-10-07T15:56:59.704Z,5.17
2017-10-07T15:59:26.067Z,6.90
2017-10-07T16:01:56.140Z,3.40
2017-10-07T16:04:22.564Z,8.40
2017-10-07T16:06:48.927Z,3.80
2017-10-07T16:09:16.055Z,6.63
2017-10-07T16:11:42.424Z,7.63
2017-10-07T16:14:08.837Z,4.97
2017-10-07T16:16:35.185Z,8.97
2017-10-07T16:19:01.561Z,6.03
2017-10-07T16:21:27.931Z,3.60
2017-10-07T16:23:54.856Z,8.00
2017-10-07T16:26:21.227Z,4.03
2017-10-07T16:28:47.591Z,3.83
2017-10-07T16:31:14.048Z,5.20
2017-10-07T16:33:41.208Z,5.87
2017-10-07T16:36:07.639Z,7.57
2017-10-07T16:38:34.069Z,5.27
2017-10-07T16:41:01.221Z,6.33
2017-10-07T16:43:28.538Z,5.33
2017-10-07T16:45:54.909Z,5.60
2017-10-07T16:48:21.275Z,7.13
2017-10-07T16:50:47.721Z,4.87
2017-10-07T16:53:14.104Z,7.23
2017-10-07T16:55:41.267Z,6.03
2017-10-07T16:58:07.675Z,5.30
2017-10-07T17:00:34.370Z,10.03
2017-10-07T17:03:00.766Z,4.97
2017-10-07T17:05:27.151Z,8.50
2017-10-07T17:07:53.572Z,10.97
2017-10-07T17:10:21.430Z,5.03
2017-10-07T17:12:48.623Z,6.53
2017-10-07T17:15:14.999Z,6.17
2017-10-07T17:17:41.403Z,6.00
2017-10-07T17:20:07.738Z,8.53
2017-10-07T17:22:34.103Z,6.30
2017-10-07T17:25:00.540Z,4.57
2017-10-07T17:27:26.919Z,5.63
2017-10-07T17:29:53.264Z,4.20
2017-10-07T17:32:19.655Z,8.30
2017-10-07T17:34:46.000Z,5.23
2017-10-07T17:37:12.336Z,4.37
2017-10-07T17:39:38.783Z,3.33
2017-10-07T17:42:05.260Z,2.90
2017-10-07T17:44:31.603Z,3.67
2017-10-07T17:46:57.959Z,9.27
2017-10-07T17:49:25.075Z,10.80
2017-10-07T17:51:51.395Z,3.90
2017-10-07T17:54:18.463Z,4.60
2017-10-07T17:56:44.812Z,5.70
2017-10-07T17:59:11.200Z,7.20
2017-10-07T18:01:37.535Z,5.00
2017-10-07T18:04:03.893Z,4.70
2017-10-07T18:06:30.285Z,12.70
2017-10-07T18:08:56.613Z,6.83
2017-10-07T18:11:22.923Z,5.03
2017-10-07T18:13:50.015Z,7.23
2017-10-07T18:16:16.372Z,4.70
2017-10-07T18:18:43.420Z,6.73
2017-10-07T18:21:09.776Z,9.70
2017-10-07T18:23:36.115Z,5.20
2017-10-07T18:26:02.586Z,8.30
2017-10-07T18:28:28.963Z,12.03
2017-10-07T18:30:55.311Z,9.77
2017-10-07T18:33:22.419Z,6.93
2017-10-07T18:35:48.757Z,10.53
2017-10-07T18:38:15.131Z,8.77
2017-10-07T18:40:41.474Z,9.73
2017-10-07T18:43:07.843Z,4.53
2017-10-07T18:45:34.916Z,9.87
2017-10-07T18:48:01.240Z,6.23
2017-10-07T18:50:27.559Z,7.57
2017-10-07T18:52:53.919Z,6.30
2017-10-07T18:55:20.354Z,8.90
2017-10-07T18:57:46.695Z,6.20
2017-10-07T19:00:13.031Z,9.97
2017-10-07T19:02:39.590Z,12.23
2017-10-07T19:05:05.987Z,13.93
2017-10-07T19:07:32.367Z,10.57
2017-10-07T19:09:58.716Z,5.80
2017-10-07T19:12:25.040Z,6.73
2017-10-07T19:14:51.459Z,8.10
2017-10-07T19:17:17.775Z,6.10
2017-10-07T19:19:44.095Z,8.87
2017-10-07T19:22:11.919Z,4.87
2017-10-07T19:24:38.319Z,6.37
2017-10-07T19:27:04.743Z,4.83
2017-10-07T19:29:31.049Z,9.03
2017-10-07T19:31:57.388Z,10.17
2017-10-07T19:34:24.444Z,11.30
2017-10-07T19:36:51.527Z,19.73
2017-10-07T19:39:17.866Z,8.03
2017-10-07T19:41:44.207Z,4.30
2017-10-07T19:44:10.526Z,5.80
2017-10-07T19:46:37.612Z,7.60
2017-10-07T19:49:03.928Z,7.77
2017-10-07T19:51:37.251Z,5.33
2017-10-07T19:54:09.615Z,9.80
2017-10-07T19:56:36.667Z,8.50
2017-10-07T19:59:02.989Z,4.20
2017-10-07T20:01:29.279Z,6.20
2017-10-07T20:03:55.615Z,8.20
2017-10-07T20:06:22.702Z,9.23
2017-10-07T20:08:49.062Z,6.53
2017-10-07T20:11:15.378Z,7.80
2017-10-07T20:13:42.415Z,8.73
2017-10-07T20:16:08.808Z,10.23
2017-10-07T20:18:35.148Z,6.30
2017-10-07T20:21:01.506Z,9.13
2017-10-07T20:23:27.815Z,10.67
2017-10-07T20:25:54.151Z,8.40
2017-10-07T20:28:20.479Z,8.23
2017-10-07T20:30:46.859Z,8.80
2017-10-07T20:33:13.203Z,17.13
2017-10-07T20:35:39.542Z,6.67
2017-10-07T20:38:06.675Z,10.77
2017-10-07T20:40:33.020Z,6.00
2017-10-07T20:42:59.375Z,8.20
2017-10-07T20:45:25.718Z,10.30
2017-10-07T20:47:52.044Z,12.00
2017-10-07T20:50:18.391Z,10.20
2017-10-07T20:52:44.738Z,9.80
2017-10-07T20:55:11.107Z,9.90
2017-10-07T20:57:37.461Z,6.40
2017-10-07T21:00:03.851Z,7.90
2017-10-07T21:02:31.711Z,7.17
2017-10-07T21:04:58.075Z,6.30
2017-10-07T21:07:25.172Z,5.27
2017-10-07T21:09:51.475Z,6.33
2017-10-07T21:12:17.852Z,6.30
2017-10-07T21:14:44.191Z,9.40
2017-10-07T21:17:10.544Z,4.37
2017-10-07T21:19:36.898Z,7.57
2017-10-07T21:22:03.252Z,5.07
2017-10-07T21:24:29.595Z,7.93
2017-10-07T21:26:55.964Z,8.07
2017-10-07T21:29:23.775Z,15.30
2017-10-07T21:31:50.256Z,10.83
2017-10-07T21:34:17.367Z,9.37
2017-10-07T21:36:43.700Z,6.70
2017-10-07T21:39:10.048Z,9.83
2017-10-07T21:41:37.123Z,9.27
2017-10-07T21:44:05.016Z,10.53
2017-10-07T21:46:31.385Z,8.10
2017-10-07T21:48:57.791Z,9.23
2017-10-07T21:51:24.127Z,11.70
2017-10-07T21:53:50.492Z,7.47
2017-10-07T21:56:16.825Z,9.83
2017-10-07T21:58:43.215Z,9.93
2017-10-07T22:01:10.287Z,8.33
2017-10-07T22:03:37.360Z,9.87
2017-10-07T22:06:03.876Z,8.80
2017-10-07T22:08:30.255Z,11.50
2017-10-07T22:10:56.595Z,11.17
2017-10-07T22:13:23.635Z,10.87
2017-10-07T22:15:49.951Z,12.23
2017-10-07T22:18:17.036Z,14.27
2017-10-07T22:20:43.347Z,14.37
2017-10-07T22:23:09.651Z,14.03
2017-10-07T22:25:35.983Z,15.90
2017-10-07T22:28:02.349Z,14.33
2017-10-07T22:30:28.679Z,14.60
2017-10-07T22:32:55.212Z,13.07
2017-10-07T22:35:21.531Z,13.10
2017-10-07T22:37:48.615Z,13.50
2017-10-07T22:40:14.955Z,13.13
2017-10-07T22:42:41.449Z,14.53
2017-10-07T22:45:07.820Z,18.50
2017-10-07T22:47:34.151Z,15.13
2017-10-07T22:50:00.471Z,16.97
2017-10-07T22:52:26.839Z,19.63
2017-10-07T22:54:53.142Z,17.90
2017-10-07T22:57:19.496Z,17.77
2017-10-07T22:59:45.843Z,21.10
2017-10-07T23:02:12.286Z,23.63
2017-10-07T23:04:38.620Z,21.37
2017-10-07T23:07:04.995Z,26.63
2017-10-07T23:09:31.315Z,22.80
2017-10-07T23:11:57.668Z,29.57
2017-10-07T23:14:24.783Z,29.40
2017-10-07T23:16:51.114Z,29.27
2017-10-07T23:19:17.482Z,32.13
2017-10-07T23:21:43.797Z,32.13
2017-10-07T23:24:10.155Z,39.03
2017-10-07T23:26:36.478Z,41.87
2017-10-07T23:29:02.840Z,39.77
2017-10-07T23:31:29.179Z,43.10
2017-10-07T23:33:55.525Z,52.67
2017-10-07T23:36:21.859Z,45.77
2017-10-07T23:38:48.251Z,50.73
2017-10-07T23:41:14.555Z,46.93
2017-10-07T23:43:40.924Z,56.07
2017-10-07T23:46:07.250Z,41.70
2017-10-07T23:48:33.547Z,55.73
2017-10-07T23:50:59.872Z,48.40
2017-10-07T23:53:26.217Z,47.03
2017-10-07T23:55:53.321Z,54.80
2017-10-07T23:58:19.654Z,50.30
